Time;durP1;ratioP1;P1;durP2;ratioP2;P2;SDS_P1;SDS_P2;PMS_P1;PMS_P2;Temp;Humidity;BMP_temperature;BMP_pressure;BME280_temperature;BME280_humidity;BME280_pressure;Samples;Min_cycle;Max_cycle;Signal;HPM_P1;HPM_P2
2021/08/13 00:01:00;;;;;;;7.50;2.20;;;17.80;99.90;;;;;;2083916;28;20017;-69
2021/08/13 00:02:01;;;;;;;7.88;2.45;;;17.80;99.90;;;;;;2086966;28;20045;-70
2021/08/13 00:03:01;;;;;;;8.40;2.38;;;17.80;99.90;;;;;;2084742;28;20109;-69
2021/08/13 00:04:02;;;;;;;7.03;2.42;;;17.80;99.90;;;;;;2084522;28;20034;-70
2021/08/13 00:05:03;;;;;;;8.68;2.15;;;17.80;99.90;;;;;;2079544;28;20028;-70
2021/08/13 00:06:04;;;;;;;7.47;2.30;;;17.80;99.90;;;;;;2083899;28;20536;-70
2021/08/13 00:07:05;;;;;;;6.47;2.03;;;17.80;99.90;;;;;;2084945;28;20049;-70
2021/08/13 00:08:06;;;;;;;10.15;2.50;;;17.80;99.90;;;;;;2080969;28;20650;-70
2021/08/13 00:09:10;;;;;;;10.50;2.85;;;17.80;99.90;;;;;;2080807;28;20486;-71
2021/08/13 00:10:11;;;;;;;6.20;2.25;;;17.80;99.90;;;;;;2087792;28;20048;-71
2021/08/13 00:11:11;;;;;;;8.55;2.72;;;17.80;99.90;;;;;;2083068;28;20025;-71
2021/08/13 00:12:12;;;;;;;10.05;2.70;;;17.80;99.90;;;;;;2079945;28;20029;-70
2021/08/13 00:13:13;;;;;;;8.15;2.30;;;17.80;99.90;;;;;;2082325;28;20017;-71
2021/08/13 00:14:14;;;;;;;9.80;2.83;;;17.80;99.90;;;;;;2081874;28;20029;-70
2021/08/13 00:15:14;;;;;;;7.90;2.63;;;17.80;99.90;;;;;;2081495;28;20017;-71
2021/08/13 00:16:15;;;;;;;6.15;2.60;;;17.80;99.90;;;;;;2081618;28;20018;-70
2021/08/13 00:17:16;;;;;;;11.20;3.15;;;17.80;99.90;;;;;;2082306;28;20010;-70
2021/08/13 00:18:16;;;;;;;9.35;3.33;;;17.80;99.90;;;;;;2079089;28;20618;-70
2021/08/13 00:19:17;;;;;;;9.55;3.15;;;17.80;99.90;;;;;;2081283;28;20021;-70
2021/08/13 00:20:20;;;;;;;11.13;3.38;;;17.80;99.90;;;;;;2077846;28;20018;-71
2021/08/13 00:21:20;;;;;;;7.65;2.92;;;17.80;99.90;;;;;;2076737;28;20024;-71
2021/08/13 00:22:22;;;;;;;7.38;2.38;;;17.80;99.90;;;;;;2081561;28;20025;-71
2021/08/13 00:23:22;;;;;;;7.75;2.88;;;17.80;99.90;;;;;;2086994;28;20083;-71
2021/08/13 00:24:23;;;;;;;12.85;2.95;;;17.80;99.90;;;;;;2081326;28;20467;-70
2021/08/13 00:25:24;;;;;;;6.43;2.50;;;17.80;99.90;;;;;;2072550;28;20030;-71
2021/08/13 00:26:27;;;;;;;6.95;2.50;;;17.80;99.90;;;;;;2079028;28;20105;-71
2021/08/13 00:27:28;;;;;;;8.35;2.60;;;17.80;99.90;;;;;;2073937;28;20090;-71
2021/08/13 00:28:28;;;;;;;6.05;2.58;;;17.80;99.90;;;;;;2074486;28;20121;-71
2021/08/13 00:29:29;;;;;;;9.02;3.08;;;17.80;99.90;;;;;;2074387;28;20375;-71
2021/08/13 00:30:30;;;;;;;9.13;2.55;;;17.80;99.90;;;;;;2083814;28;20096;-70
2021/08/13 00:31:31;;;;;;;13.32;3.30;;;17.80;99.90;;;;;;2084817;28;20140;-71
2021/08/13 00:32:31;;;;;;;7.22;2.72;;;17.80;99.90;;;;;;2083491;28;20021;-71
2021/08/13 00:33:32;;;;;;;7.55;2.95;;;17.80;99.90;;;;;;2092745;28;20017;-71
2021/08/13 00:34:32;;;;;;;4.20;1.92;;;17.80;99.90;;;;;;2100907;28;20129;-70
2021/08/13 00:35:33;;;;;;;6.55;2.40;;;17.80;99.90;;;;;;2081718;28;20025;-71
2021/08/13 00:36:34;;;;;;;6.70;2.72;;;17.80;99.90;;;;;;2081265;28;20086;-71
2021/08/13 00:37:35;;;;;;;5.60;2.40;;;17.80;99.90;;;;;;2081447;28;20692;-71
2021/08/13 00:38:35;;;;;;;4.55;2.20;;;17.80;99.90;;;;;;2081903;28;20022;-71
2021/08/13 00:39:36;;;;;;;4.43;2.22;;;17.80;99.90;;;;;;2079104;28;20026;-71
2021/08/13 00:40:36;;;;;;;7.30;2.50;;;17.80;99.90;;;;;;2076394;28;20519;-70
2021/08/13 00:41:37;;;;;;;5.93;2.47;;;17.80;99.90;;;;;;2075123;28;20037;-71
2021/08/13 00:42:38;;;;;;;7.30;2.58;;;17.80;99.90;;;;;;2081094;28;20064;-71
2021/08/13 00:43:39;;;;;;;7.47;2.83;;;17.80;99.90;;;;;;2085054;28;20024;-70
2021/08/13 00:44:40;;;;;;;11.60;2.60;;;17.80;99.90;;;;;;2081757;28;20025;-71
2021/08/13 00:45:40;;;;;;;5.00;2.45;;;17.70;99.90;;;;;;2079131;28;20014;-71
2021/08/13 00:46:41;;;;;;;9.52;2.47;;;17.70;99.90;;;;;;2082183;28;20048;-71
2021/08/13 00:47:42;;;;;;;5.70;2.35;;;17.60;99.90;;;;;;2081708;28;20017;-72
2021/08/13 00:48:42;;;;;;;8.00;2.38;;;17.60;99.90;;;;;;2081168;28;20544;-71
2021/08/13 00:49:43;;;;;;;8.73;2.35;;;17.50;99.90;;;;;;2076651;28;20149;-71
2021/08/13 00:50:44;;;;;;;7.25;2.33;;;17.40;99.90;;;;;;2078020;28;20025;-71
2021/08/13 00:51:45;;;;;;;8.33;2.53;;;17.40;99.90;;;;;;2076898;28;20706;-71
2021/08/13 00:52:46;;;;;;;8.38;2.38;;;17.30;99.90;;;;;;2079848;28;20264;-70
2021/08/13 00:53:47;;;;;;;12.27;2.53;;;17.20;99.90;;;;;;2081693;28;20036;-71
2021/08/13 00:54:48;;;;;;;6.30;2.20;;;17.20;99.90;;;;;;2079353;28;20052;-70
2021/08/13 00:55:50;;;;;;;6.20;2.35;;;17.20;99.90;;;;;;2076144;28;20033;-70
2021/08/13 00:56:51;;;;;;;5.80;2.20;;;17.10;99.90;;;;;;2073596;28;20694;-71
2021/08/13 00:57:52;;;;;;;7.20;2.80;;;17.00;99.90;;;;;;2080360;28;20109;-70
2021/08/13 00:58:53;;;;;;;6.50;2.65;;;17.00;99.90;;;;;;2081532;28;20021;-71
2021/08/13 00:59:55;;;;;;;8.07;2.53;;;17.00;99.90;;;;;;2081046;28;20135;-70
2021/08/13 01:00:56;;;;;;;;;;;16.90;99.90;;;;;;2081761;28;20533;-71
2021/08/13 01:01:57;;;;;;;8.60;2.75;;;16.90;99.90;;;;;;2083656;28;19917;-71
2021/08/13 01:02:58;;;;;;;7.90;2.70;;;16.90;99.90;;;;;;2082114;28;20029;-71
2021/08/13 01:03:59;;;;;;;9.38;2.80;;;16.90;99.90;;;;;;2080331;28;20033;-71
2021/08/13 01:05:00;;;;;;;7.20;2.47;;;16.80;99.90;;;;;;2073608;28;20029;-71
2021/08/13 01:06:01;;;;;;;6.30;2.40;;;16.80;99.90;;;;;;2076687;28;20028;-71
2021/08/13 01:07:02;;;;;;;10.40;2.58;;;16.80;99.90;;;;;;2081039;28;20501;-70
2021/08/13 01:08:03;;;;;;;7.03;2.92;;;16.90;99.90;;;;;;2068613;28;20108;-71
2021/08/13 01:09:05;;;;;;;7.70;2.60;;;16.90;99.90;;;;;;2078017;28;20036;-71
2021/08/13 01:10:06;;;;;;;8.07;2.80;;;16.90;99.90;;;;;;2080771;28;20408;-71
2021/08/13 01:11:15;;;;;;;10.52;2.60;;;16.90;99.90;;;;;;2080850;28;20256;-71
2021/08/13 01:12:21;;;;;;;8.23;2.70;;;17.00;99.90;;;;;;2072521;28;20030;-70
2021/08/13 01:13:50;;;;;;;6.25;2.40;;;17.00;99.90;;;;;;2072750;28;20402;-70
2021/08/13 01:15:05;;;;;;;7.53;2.60;;;17.00;99.90;;;;;;2078595;28;20044;-70
2021/08/13 01:16:07;;;;;;;8.38;2.58;;;17.10;99.90;;;;;;2087983;28;20021;-72
2021/08/13 01:17:10;;;;;;;7.60;2.42;;;17.10;99.90;;;;;;2095609;28;20538;-70
2021/08/13 01:18:19;;;;;;;8.65;2.50;;;17.20;99.90;;;;;;2080086;28;20567;-70
2021/08/13 01:19:26;;;;;;;10.02;2.35;;;17.20;99.90;;;;;;2073397;28;20434;-70
2021/08/13 01:21:01;;;;;;;10.73;2.28;;;17.30;99.90;;;;;;2081110;28;20048;-69
2021/08/13 01:22:16;;;;;;;8.88;2.75;;;17.30;99.90;;;;;;2072984;28;20037;-70
2021/08/13 01:23:24;;;;;;;8.82;2.50;;;17.30;99.90;;;;;;2077281;28;20096;-70
2021/08/13 01:24:27;;;;;;;8.52;2.78;;;17.30;99.90;;;;;;2073906;28;20018;-70
2021/08/13 01:25:33;;;;;;;7.13;2.10;;;17.40;99.90;;;;;;2086181;28;20029;-71
2021/08/13 01:26:46;;;;;;;10.55;2.50;;;17.40;99.90;;;;;;2080808;28;20025;-70
2021/08/13 01:27:50;;;;;;;10.02;3.10;;;17.40;99.90;;;;;;2074002;28;20025;-70
2021/08/13 01:29:09;;;;;;;8.75;2.75;;;17.40;99.90;;;;;;2081160;28;20021;-71
2021/08/13 01:30:16;;;;;;;6.85;2.38;;;17.40;99.90;;;;;;2080733;28;20024;-70
2021/08/13 01:31:24;;;;;;;8.77;3.05;;;17.30;99.90;;;;;;2074790;28;20516;-71
2021/08/13 01:32:56;;;;;;;9.70;2.58;;;17.30;99.90;;;;;;2079352;28;20068;-70
2021/08/13 01:34:01;;;;;;;10.07;2.40;;;17.30;99.90;;;;;;2084791;28;20070;-69
2021/08/13 01:35:33;;;;;;;6.93;2.90;;;17.30;99.90;;;;;;2096568;28;20091;-71
2021/08/13 01:36:35;;;;;;;8.35;3.05;;;17.40;99.90;;;;;;2073990;28;20524;-71
2021/08/13 01:37:39;;;;;;;6.40;2.38;;;17.40;99.90;;;;;;2080269;28;20021;-71
2021/08/13 01:38:41;;;;;;;5.78;2.08;;;17.40;99.90;;;;;;2080364;28;20409;-71
2021/08/13 01:39:44;;;;;;;6.82;2.20;;;17.40;99.90;;;;;;2081542;28;20021;-71
2021/08/13 01:40:48;;;;;;;11.10;2.38;;;17.40;99.90;;;;;;2079972;28;20057;-71
2021/08/13 01:41:50;;;;;;;11.00;2.80;;;17.50;99.90;;;;;;2080265;28;20053;-71
2021/08/13 01:42:52;;;;;;;10.77;2.78;;;17.50;99.90;;;;;;2081342;28;20024;-70
2021/08/13 01:43:53;;;;;;;;;;;17.50;99.90;;;;;;2080977;28;20114;-71
2021/08/13 01:44:55;;;;;;;9.10;2.53;;;17.50;99.90;;;;;;2081180;28;19952;-70
2021/08/13 01:45:57;;;;;;;10.40;2.50;;;17.50;99.90;;;;;;2080658;28;20128;-71
2021/08/13 01:46:58;;;;;;;;;;;17.50;99.90;;;;;;2077900;28;21043;-71
2021/08/13 01:48:02;;;;;;;10.25;2.85;;;17.50;99.90;;;;;;2077866;28;19959;-71
2021/08/13 01:49:04;;;;;;;9.98;2.38;;;17.50;99.90;;;;;;2072887;28;20034;-71
2021/08/13 01:50:05;;;;;;;10.40;2.88;;;17.50;99.90;;;;;;2073280;28;20018;-71
2021/08/13 01:51:08;;;;;;;6.25;2.10;;;17.50;99.90;;;;;;2077136;28;20604;-71
2021/08/13 01:52:09;;;;;;;8.40;2.42;;;17.50;99.90;;;;;;2075892;28;20032;-71
2021/08/13 01:53:10;;;;;;;8.20;2.63;;;17.50;99.90;;;;;;2072413;28;20060;-71
2021/08/13 01:54:12;;;;;;;7.57;2.20;;;17.50;99.90;;;;;;2075492;28;20025;-70
2021/08/13 01:55:14;;;;;;;8.27;2.08;;;17.50;99.90;;;;;;2081038;28;20026;-71
2021/08/13 01:56:16;;;;;;;6.63;2.20;;;17.40;99.90;;;;;;2080438;28;20022;-70
2021/08/13 01:57:17;;;;;;;8.38;2.38;;;17.40;99.90;;;;;;2078557;28;20029;-71
2021/08/13 01:58:19;;;;;;;12.57;3.20;;;17.40;99.90;;;;;;2072663;28;20120;-71
2021/08/13 01:59:20;;;;;;;11.15;2.40;;;17.40;99.90;;;;;;2076565;28;20069;-71
2021/08/13 02:00:23;;;;;;;12.68;2.28;;;17.40;99.90;;;;;;2080793;28;20022;-71
2021/08/13 02:01:24;;;;;;;10.27;2.50;;;17.30;99.90;;;;;;2078324;28;20034;-71
2021/08/13 02:02:25;;;;;;;14.95;2.60;;;17.30;99.90;;;;;;2074274;28;20096;-71
2021/08/13 02:03:26;;;;;;;13.70;2.75;;;17.20;99.90;;;;;;2080936;28;20017;-71
2021/08/13 02:04:27;;;;;;;8.75;2.25;;;17.20;99.90;;;;;;2076206;28;20536;-71
2021/08/13 02:05:30;;;;;;;8.52;2.13;;;17.20;99.90;;;;;;2089205;28;20048;-71
2021/08/13 02:06:32;;;;;;;11.13;2.95;;;17.20;99.90;;;;;;2077866;28;20022;-71
2021/08/13 02:07:37;;;;;;;12.77;2.60;;;17.20;99.90;;;;;;2079907;28;20072;-71
2021/08/13 02:08:38;;;;;;;11.43;3.15;;;17.20;99.90;;;;;;2073822;28;20025;-70
2021/08/13 02:09:39;;;;;;;10.43;2.42;;;17.20;99.90;;;;;;2081298;28;20451;-70
2021/08/13 02:10:43;;;;;;;9.02;2.55;;;17.20;99.90;;;;;;2080266;28;20108;-70
2021/08/13 02:11:45;;;;;;;7.95;2.42;;;17.20;99.90;;;;;;2080062;28;20057;-71
2021/08/13 02:12:46;;;;;;;11.70;2.60;;;17.20;99.90;;;;;;2081296;28;20096;-71
2021/08/13 02:13:46;;;;;;;9.80;3.20;;;17.20;99.90;;;;;;2075890;28;20038;-71
2021/08/13 02:14:47;;;;;;;9.77;2.70;;;17.20;99.90;;;;;;2076843;28;20268;-71
2021/08/13 02:16:10;;;;;;;8.63;2.33;;;17.20;99.90;;;;;;2079925;28;20576;-71
2021/08/13 02:17:23;;;;;;;10.35;2.33;;;17.20;99.90;;;;;;2067358;28;20037;-71
2021/08/13 02:18:25;;;;;;;8.45;2.38;;;17.20;99.90;;;;;;2067319;28;20034;-71
2021/08/13 02:19:44;;;;;;;11.45;2.80;;;17.20;99.90;;;;;;2075043;28;20116;-71
2021/08/13 02:20:46;;;;;;;10.90;2.70;;;17.20;99.90;;;;;;2084917;28;20028;-70
2021/08/13 02:21:49;;;;;;;8.52;2.60;;;17.20;99.90;;;;;;2077859;28;20083;-70
2021/08/13 02:22:49;;;;;;;7.68;2.63;;;17.20;99.90;;;;;;2077915;28;20032;-72
2021/08/13 02:23:50;;;;;;;8.75;2.50;;;17.20;99.90;;;;;;2076245;28;20528;-70
2021/08/13 02:24:51;;;;;;;10.52;2.60;;;17.20;99.90;;;;;;2076655;28;20014;-71
2021/08/13 02:25:52;;;;;;;9.60;2.38;;;17.20;99.90;;;;;;2080326;28;20036;-70
2021/08/13 02:26:54;;;;;;;14.02;3.22;;;17.20;99.90;;;;;;2079042;28;20022;-71
2021/08/13 02:27:55;;;;;;;11.88;2.88;;;17.20;99.90;;;;;;2072302;28;20244;-70
2021/08/13 02:28:56;;;;;;;10.15;2.40;;;17.20;99.90;;;;;;2072738;28;20533;-70
2021/08/13 02:29:57;;;;;;;10.15;2.30;;;17.20;99.90;;;;;;2079423;28;20084;-71
2021/08/13 02:30:57;;;;;;;11.75;2.40;;;17.20;99.90;;;;;;2080352;28;20022;-70
2021/08/13 02:31:58;;;;;;;12.38;2.75;;;17.20;99.90;;;;;;2077763;28;20738;-72
2021/08/13 02:32:59;;;;;;;8.57;2.28;;;17.20;99.90;;;;;;2079235;28;20049;-72
2021/08/13 02:33:59;;;;;;;12.25;2.90;;;17.20;99.90;;;;;;2075563;28;20110;-71
2021/08/13 02:35:01;;;;;;;8.95;2.28;;;17.20;99.90;;;;;;2073217;28;20030;-71
2021/08/13 02:36:07;;;;;;;;;;;17.20;99.90;;;;;;2080952;28;20021;-71
2021/08/13 02:37:23;;;;;;;11.60;2.10;;;17.30;99.90;;;;;;2081014;28;19913;-71
2021/08/13 02:38:26;;;;;;;14.55;2.47;;;17.30;99.90;;;;;;2080707;28;20049;-71
2021/08/13 02:39:32;;;;;;;11.15;2.70;;;17.30;99.90;;;;;;2080167;28;20036;-71
2021/08/13 02:41:11;;;;;;;8.35;2.28;;;17.30;99.90;;;;;;2078279;28;20041;-71
2021/08/13 02:42:15;;;;;;;8.75;3.10;;;17.30;99.90;;;;;;2075459;28;20072;-70
2021/08/13 02:43:49;;;;;;;11.60;3.05;;;17.30;99.90;;;;;;2077695;28;20097;-72
2021/08/13 02:44:53;;;;;;;9.80;2.78;;;17.30;99.90;;;;;;2072678;28;20050;-70
2021/08/13 02:45:57;;;;;;;9.18;2.72;;;17.30;99.90;;;;;;2079258;28;20071;-72
2021/08/13 02:47:06;;;;;;;10.60;2.47;;;17.30;99.90;;;;;;2078572;28;20029;-71
2021/08/13 02:48:07;;;;;;;9.35;2.40;;;17.40;99.90;;;;;;2072617;28;20014;-71
2021/08/13 02:49:10;;;;;;;10.30;2.20;;;17.30;99.90;;;;;;2071276;28;20468;-70
2021/08/13 02:50:12;;;;;;;13.38;2.72;;;17.40;99.90;;;;;;2072634;28;20156;-71
2021/08/13 02:51:15;;;;;;;;;;;17.30;99.90;;;;;;2081101;28;20025;-71
2021/08/13 02:52:18;;;;;;;;;;;17.40;99.90;;;;;;2073063;28;20000;-71
2021/08/13 02:53:21;;;;;;;11.60;2.30;;;17.40;99.90;;;;;;2073219;28;19941;-70
2021/08/13 02:54:25;;;;;;;10.18;2.38;;;17.40;99.90;;;;;;2078242;28;20029;-70
2021/08/13 02:55:54;;;;;;;10.40;2.83;;;17.40;99.90;;;;;;2077806;28;20175;-71
2021/08/13 02:56:59;;;;;;;10.18;3.20;;;17.40;99.90;;;;;;2079416;28;20064;-71
2021/08/13 02:58:01;;;;;;;10.20;2.20;;;17.40;99.90;;;;;;2073033;28;20037;-70
2021/08/13 02:59:06;;;;;;;12.38;2.33;;;17.40;99.90;;;;;;2080130;28;20036;-71
2021/08/13 03:00:07;;;;;;;10.95;2.88;;;17.40;99.90;;;;;;2068988;28;20041;-71
2021/08/13 03:01:12;;;;;;;13.77;2.70;;;17.40;99.90;;;;;;2069467;28;20029;-71
2021/08/13 03:02:13;;;;;;;10.50;2.95;;;17.40;99.90;;;;;;2080025;28;20034;-72
2021/08/13 03:03:17;;;;;;;15.30;2.45;;;17.40;99.90;;;;;;2081044;28;20040;-70
2021/08/13 03:04:19;;;;;;;12.00;2.65;;;17.40;99.90;;;;;;2080066;28;20084;-70
2021/08/13 03:05:22;;;;;;;8.65;2.60;;;17.40;99.90;;;;;;2080812;28;20725;-71
2021/08/13 03:06:32;;;;;;;13.13;2.67;;;17.40;99.90;;;;;;2081002;28;20040;-70
2021/08/13 03:07:33;;;;;;;12.85;2.85;;;17.40;99.90;;;;;;2078662;28;20029;-70
2021/08/13 03:08:34;;;;;;;9.95;2.63;;;17.40;99.90;;;;;;2072280;28;20018;-70
2021/08/13 03:09:38;;;;;;;8.50;2.60;;;17.40;99.90;;;;;;2078865;28;20082;-70
2021/08/13 03:10:39;;;;;;;12.82;2.45;;;17.40;99.90;;;;;;2079802;28;20275;-71
2021/08/13 03:11:42;;;;;;;10.98;3.08;;;17.40;99.90;;;;;;2074882;28;20061;-71
2021/08/13 03:12:43;;;;;;;10.00;2.53;;;17.40;99.90;;;;;;2075899;28;20391;-70
2021/08/13 03:13:45;;;;;;;12.98;2.42;;;17.50;99.90;;;;;;2081028;28;20563;-71
2021/08/13 03:14:46;;;;;;;9.63;2.70;;;17.50;99.90;;;;;;2075041;28;20402;-70
2021/08/13 03:15:48;;;;;;;9.18;2.67;;;17.50;99.90;;;;;;2072033;28;20018;-70
2021/08/13 03:16:50;;;;;;;10.57;2.40;;;17.50;99.90;;;;;;2080581;28;20532;-70
2021/08/13 03:17:52;;;;;;;14.52;2.67;;;17.50;99.90;;;;;;2080802;28;20497;-70
2021/08/13 03:18:55;;;;;;;10.25;2.70;;;17.50;99.90;;;;;;2078534;28;20033;-71
2021/08/13 03:19:56;;;;;;;10.63;2.75;;;17.50;99.90;;;;;;2079583;28;20036;-71
2021/08/13 03:20:57;;;;;;;13.27;3.30;;;17.50;99.90;;;;;;2072526;28;20025;-70
2021/08/13 03:21:59;;;;;;;7.82;2.25;;;17.50;99.90;;;;;;2072181;28;20030;-71
2021/08/13 03:23:00;;;;;;;9.65;2.15;;;17.50;99.90;;;;;;2072036;28;20029;-70
2021/08/13 03:24:01;;;;;;;8.90;2.78;;;17.50;99.90;;;;;;2072430;28;20026;-71
2021/08/13 03:25:06;;;;;;;14.45;2.97;;;17.50;99.90;;;;;;2075963;28;20524;-70
2021/08/13 03:26:08;;;;;;;12.73;2.63;;;17.50;99.90;;;;;;2076852;28;20025;-71
2021/08/13 03:27:10;;;;;;;13.82;2.70;;;17.50;99.90;;;;;;2072870;28;20029;-71
2021/08/13 03:28:10;;;;;;;16.98;2.80;;;17.50;99.90;;;;;;2076163;28;20035;-70
2021/08/13 03:29:11;;;;;;;12.00;2.42;;;17.50;99.90;;;;;;2080720;28;20460;-72
2021/08/13 03:30:13;;;;;;;14.57;3.67;;;17.50;99.90;;;;;;2080768;28;20010;-70
2021/08/13 03:31:42;;;;;;;8.48;2.33;;;17.50;99.90;;;;;;2080748;28;20032;-70
2021/08/13 03:32:46;;;;;;;13.90;2.92;;;17.40;99.90;;;;;;2080509;28;20029;-72
2021/08/13 03:33:47;;;;;;;18.67;2.90;;;17.40;99.90;;;;;;2075161;28;20022;-70
2021/08/13 03:34:48;;;;;;;18.60;3.53;;;17.40;99.90;;;;;;2079039;28;20029;-70
2021/08/13 03:35:49;;;;;;;14.35;3.03;;;17.40;99.90;;;;;;2068184;28;20121;-70
2021/08/13 03:36:50;;;;;;;9.73;2.75;;;17.50;99.90;;;;;;2072134;28;20575;-70
2021/08/13 03:37:51;;;;;;;10.38;2.35;;;17.40;99.90;;;;;;2072709;28;20037;-70
2021/08/13 03:38:51;;;;;;;10.18;2.40;;;17.40;99.90;;;;;;2074430;28;20092;-71
2021/08/13 03:39:52;;;;;;;15.05;3.20;;;17.40;99.90;;;;;;2079073;28;20723;-70
2021/08/13 03:40:53;;;;;;;12.13;2.60;;;17.40;99.90;;;;;;2076985;28;20497;-70
2021/08/13 03:41:54;;;;;;;11.18;2.95;;;17.50;99.90;;;;;;2074404;28;20030;-70
2021/08/13 03:42:55;;;;;;;9.45;2.42;;;17.40;99.90;;;;;;2080568;28;20017;-70
2021/08/13 03:43:55;;;;;;;8.95;2.45;;;17.40;99.90;;;;;;2075338;28;20038;-70
2021/08/13 03:44:56;;;;;;;9.50;2.38;;;17.40;99.90;;;;;;2081083;28;20029;-70
2021/08/13 03:45:57;;;;;;;14.27;3.05;;;17.40;99.90;;;;;;2073980;28;20025;-70
2021/08/13 03:46:57;;;;;;;14.30;2.70;;;17.40;99.90;;;;;;2077548;28;20060;-70
2021/08/13 03:47:58;;;;;;;10.63;2.58;;;17.40;99.90;;;;;;2075254;28;20075;-71
2021/08/13 03:48:59;;;;;;;10.23;3.38;;;17.50;99.90;;;;;;2072569;28;20064;-71
2021/08/13 03:49:59;;;;;;;10.30;2.88;;;17.40;99.90;;;;;;2073380;28;20490;-70
2021/08/13 03:51:00;;;;;;;8.35;2.28;;;17.40;99.90;;;;;;2080273;28;20106;-69
2021/08/13 03:52:01;;;;;;;13.10;2.85;;;17.40;99.90;;;;;;2075988;28;20030;-70
2021/08/13 03:53:01;;;;;;;12.82;2.50;;;17.40;99.90;;;;;;2075180;28;20079;-71
2021/08/13 03:54:02;;;;;;;12.60;2.97;;;17.40;99.90;;;;;;2077298;28;20436;-70
2021/08/13 03:55:03;;;;;;;10.13;2.80;;;17.40;99.90;;;;;;2082742;28;20022;-71
2021/08/13 03:56:04;;;;;;;15.10;3.28;;;17.40;99.90;;;;;;2081318;28;20092;-71
2021/08/13 03:57:05;;;;;;;13.10;2.75;;;17.40;99.90;;;;;;2081843;28;20029;-71
2021/08/13 03:58:05;;;;;;;10.68;2.55;;;17.40;99.90;;;;;;2081995;28;20068;-71
2021/08/13 03:59:06;;;;;;;15.52;2.85;;;17.40;99.90;;;;;;2073609;28;20014;-71
2021/08/13 04:00:10;;;;;;;12.82;2.50;;;17.40;99.90;;;;;;2074155;28;20064;-71
2021/08/13 04:01:11;;;;;;;14.70;2.90;;;17.40;99.90;;;;;;2073466;28;20041;-71
2021/08/13 04:02:12;;;;;;;13.13;2.80;;;17.40;99.90;;;;;;2074343;28;20030;-70
2021/08/13 04:03:12;;;;;;;16.50;3.35;;;17.40;99.90;;;;;;2080724;28;20024;-70
2021/08/13 04:04:13;;;;;;;11.82;3.35;;;17.40;99.90;;;;;;2081339;28;20026;-70
2021/08/13 04:05:13;;;;;;;13.90;2.72;;;17.40;99.90;;;;;;2081743;28;20060;-70
2021/08/13 04:06:14;;;;;;;14.23;3.20;;;17.40;99.90;;;;;;2081815;28;20025;-71
2021/08/13 04:07:15;;;;;;;11.88;2.83;;;17.40;99.90;;;;;;2082494;28;20100;-71
2021/08/13 04:08:15;;;;;;;13.65;2.80;;;17.40;99.90;;;;;;2075021;28;20022;-71
2021/08/13 04:09:16;;;;;;;13.43;3.28;;;17.40;99.90;;;;;;2074288;28;20047;-71
2021/08/13 04:10:17;;;;;;;14.80;3.00;;;17.40;99.90;;;;;;2082606;28;20025;-71
2021/08/13 04:11:17;;;;;;;11.57;2.70;;;17.40;99.90;;;;;;2082514;28;20409;-70
2021/08/13 04:12:19;;;;;;;11.55;2.53;;;17.30;99.90;;;;;;2080380;28;20021;-70
2021/08/13 04:13:19;;;;;;;13.35;2.53;;;17.30;99.90;;;;;;2075771;28;20029;-71
2021/08/13 04:14:20;;;;;;;11.93;2.15;;;17.30;99.90;;;;;;2081349;28;20025;-71
2021/08/13 04:15:21;;;;;;;13.63;2.50;;;17.40;99.90;;;;;;2089144;28;20503;-71
2021/08/13 04:16:21;;;;;;;9.57;2.05;;;17.30;99.90;;;;;;2086322;28;20033;-71
2021/08/13 04:17:22;;;;;;;16.00;3.25;;;17.40;99.90;;;;;;2080604;28;20056;-71
2021/08/13 04:18:23;;;;;;;13.82;2.95;;;17.30;99.90;;;;;;2078145;28;20099;-71
2021/08/13 04:19:23;;;;;;;10.82;2.35;;;17.30;99.90;;;;;;2081326;28;20161;-71
2021/08/13 04:20:24;;;;;;;13.20;2.85;;;17.30;99.90;;;;;;2073276;28;20117;-71
2021/08/13 04:21:25;;;;;;;9.15;2.63;;;17.30;99.90;;;;;;2079961;28;20068;-71
2021/08/13 04:22:25;;;;;;;13.35;2.47;;;17.30;99.90;;;;;;2073452;28;20022;-71
2021/08/13 04:23:26;;;;;;;15.50;2.70;;;17.40;99.90;;;;;;2079127;28;20025;-71
2021/08/13 04:24:27;;;;;;;14.73;2.70;;;17.30;99.90;;;;;;2073481;28;20084;-71
2021/08/13 04:25:28;;;;;;;11.88;2.42;;;17.30;99.90;;;;;;2082272;28;20028;-70
2021/08/13 04:26:28;;;;;;;8.30;2.65;;;17.30;99.90;;;;;;2079595;28;20033;-71
2021/08/13 04:27:29;;;;;;;14.15;2.85;;;17.30;99.90;;;;;;2081803;28;20117;-70
2021/08/13 04:28:30;;;;;;;11.85;2.63;;;17.40;99.90;;;;;;2077690;28;20040;-70
2021/08/13 04:29:30;;;;;;;15.77;2.88;;;17.40;99.90;;;;;;2073376;28;20022;-72
2021/08/13 04:30:31;;;;;;;15.20;3.75;;;17.40;99.90;;;;;;2086165;28;20028;-70
2021/08/13 04:31:32;;;;;;;13.73;2.33;;;17.40;99.90;;;;;;2076510;28;20550;-71
2021/08/13 04:32:37;;;;;;;13.95;2.88;;;17.40;99.90;;;;;;2073849;28;20064;-71
2021/08/13 04:33:37;;;;;;;10.57;3.10;;;17.30;99.90;;;;;;2079426;28;20018;-70
2021/08/13 04:34:38;;;;;;;14.68;2.55;;;17.40;99.90;;;;;;2090214;28;20059;-71
2021/08/13 04:35:39;;;;;;;14.30;2.40;;;17.30;99.90;;;;;;2081112;28;20490;-70
2021/08/13 04:36:39;;;;;;;14.68;2.90;;;17.30;99.90;;;;;;2073512;28;20104;-71
2021/08/13 04:37:40;;;;;;;17.05;3.17;;;17.40;99.90;;;;;;2081111;28;20045;-70
2021/08/13 04:38:41;;;;;;;18.92;3.10;;;17.30;99.90;;;;;;2081314;28;20026;-70
2021/08/13 04:39:42;;;;;;;13.18;2.72;;;17.40;99.90;;;;;;2081654;28;20079;-70
2021/08/13 04:40:44;;;;;;;15.75;2.85;;;17.30;99.90;;;;;;2076918;28;20018;-70
2021/08/13 04:41:45;;;;;;;8.82;2.13;;;17.40;99.90;;;;;;2065481;28;20713;-70
2021/08/13 04:42:46;;;;;;;14.40;3.00;;;17.40;99.90;;;;;;2079730;28;20025;-71
2021/08/13 04:43:46;;;;;;;18.15;3.00;;;17.30;99.90;;;;;;2080016;28;20525;-71
2021/08/13 04:44:47;;;;;;;10.65;2.72;;;17.30;99.90;;;;;;2064463;28;20034;-71
2021/08/13 04:45:48;;;;;;;11.40;3.05;;;17.30;99.90;;;;;;2077285;28;20092;-71
2021/08/13 04:46:48;;;;;;;16.52;2.80;;;17.30;99.90;;;;;;2080733;28;20482;-71
2021/08/13 04:47:49;;;;;;;11.23;2.20;;;17.30;99.90;;;;;;2073154;28;20025;-70
2021/08/13 04:48:50;;;;;;;14.68;2.90;;;17.30;99.90;;;;;;2071819;28;20030;-71
2021/08/13 04:49:51;;;;;;;12.95;2.80;;;17.30;99.90;;;;;;2072130;28;20544;-71
2021/08/13 04:50:51;;;;;;;14.73;2.50;;;17.30;99.90;;;;;;2079434;28;20029;-71
2021/08/13 04:51:52;;;;;;;17.52;2.75;;;17.40;99.90;;;;;;2083372;28;20091;-70
2021/08/13 04:52:53;;;;;;;13.13;2.88;;;17.30;99.90;;;;;;2081188;28;20036;-71
2021/08/13 04:53:54;;;;;;;13.85;2.55;;;17.40;99.90;;;;;;2079983;28;20059;-71
2021/08/13 04:54:54;;;;;;;11.40;2.67;;;17.30;99.90;;;;;;2073499;28;20026;-70
2021/08/13 04:55:55;;;;;;;14.60;2.80;;;17.30;99.90;;;;;;2076362;28;20026;-70
2021/08/13 04:56:56;;;;;;;11.25;2.67;;;17.30;99.90;;;;;;2081768;28;20033;-71
2021/08/13 04:57:56;;;;;;;17.52;3.17;;;17.30;99.90;;;;;;2082055;28;20025;-71
2021/08/13 04:58:57;;;;;;;15.98;2.95;;;17.30;99.90;;;;;;2082033;28;20025;-71
2021/08/13 04:59:58;;;;;;;16.25;2.95;;;17.30;99.90;;;;;;2079322;28;20026;-71
2021/08/13 05:00:58;;;;;;;10.23;2.75;;;17.30;99.90;;;;;;2078553;28;20503;-71
2021/08/13 05:01:59;;;;;;;14.38;2.72;;;17.30;99.90;;;;;;2076500;28;20533;-72
2021/08/13 05:03:06;;;;;;;14.13;2.20;;;17.30;99.90;;;;;;2075701;28;20022;-71
2021/08/13 05:04:07;;;;;;;24.02;3.38;;;17.30;99.90;;;;;;2076052;28;20104;-71
2021/08/13 05:05:09;;;;;;;15.40;3.27;;;17.30;99.90;;;;;;2076663;28;20049;-71
2021/08/13 05:06:10;;;;;;;12.73;3.13;;;17.30;99.90;;;;;;2078447;28;20256;-70
2021/08/13 05:07:11;;;;;;;13.23;3.08;;;17.30;99.90;;;;;;2084091;28;20053;-71
2021/08/13 05:08:11;;;;;;;21.02;3.13;;;17.30;99.90;;;;;;2082596;28;20013;-71
2021/08/13 05:09:12;;;;;;;16.63;3.10;;;17.30;99.90;;;;;;2074042;28;20382;-71
2021/08/13 05:10:15;;;;;;;19.42;3.25;;;17.30;99.90;;;;;;2078577;28;20031;-71
2021/08/13 05:11:16;;;;;;;14.90;2.80;;;17.30;99.90;;;;;;2078412;28;20064;-71
2021/08/13 05:12:16;;;;;;;13.98;3.40;;;17.30;99.90;;;;;;2086153;28;20025;-72
2021/08/13 05:13:17;;;;;;;14.25;3.15;;;17.30;99.90;;;;;;2086071;28;20040;-71
2021/08/13 05:14:18;;;;;;;14.77;3.65;;;17.30;99.90;;;;;;2084266;28;20021;-72
2021/08/13 05:15:18;;;;;;;15.65;3.38;;;17.30;99.90;;;;;;2084199;28;20527;-71
2021/08/13 05:16:19;;;;;;;17.58;3.17;;;17.30;99.90;;;;;;2084059;28;20064;-71
2021/08/13 05:17:20;;;;;;;12.95;3.28;;;17.30;99.90;;;;;;2079887;28;20079;-71
2021/08/13 05:18:21;;;;;;;13.30;3.05;;;17.30;99.90;;;;;;2083266;28;20152;-71
2021/08/13 05:19:22;;;;;;;14.75;3.20;;;17.30;99.90;;;;;;2078059;28;20080;-71
2021/08/13 05:20:24;;;;;;;14.75;2.70;;;17.30;99.90;;;;;;2084113;28;20029;-70
2021/08/13 05:21:24;;;;;;;13.57;2.90;;;17.30;99.90;;;;;;2083037;28;20032;-71
2021/08/13 05:22:25;;;;;;;19.40;3.58;;;17.30;99.90;;;;;;2082280;28;20016;-71
2021/08/13 05:23:26;;;;;;;11.43;3.00;;;17.30;99.90;;;;;;2078662;28;20065;-70
2021/08/13 05:24:27;;;;;;;11.65;2.70;;;17.30;99.90;;;;;;2078919;28;20026;-71
2021/08/13 05:25:27;;;;;;;9.05;2.45;;;17.30;99.90;;;;;;2084112;28;20482;-71